Latest Weather Observations for West Wyalong

IDN60801

Issued at 7:03 am EDT Saturday 13 February 2016 (issued every 30 minutes, with the page automatically refreshed every 10 minutes)

About weather observations | Map of weather stations | Latest weather observations for NSW | Other Formats
Station Details ID: 050017 Name: WEST WYALONG AIRPORT AWS Lat: -33.94 Lon: 147.20 Height: 257.0 m
Data from the previous 72 hours. | See also: Recent months at West Wyalong
Date/Time
EDT
Temp
°C
App
Temp
°C
Dew
Point
Rel
Hum
%
Delta-T
°C
Wind Press
QNH
hPa
Press
MSL
hPa
Rain
since 9 am
mm
Dir
 
Spd
km/h
Gust
km/h
Spd
kts
Gust
kts
13/07:00am 19.5 18.8 11.5 60 4.5 NNE 6 7 3 4 1012.8 1011.4 0.0
13/06:30am 20.3 19.4 11.5 57 4.9 NNE 7 9 4 5 1012.5 1011.1 0.0
13/06:00am 21.3 20.5 11.6 54 5.5 N 7 11 4 6 1012.2 1010.8 0.0
13/05:30am 21.6 19.4 10.7 50 6.0 NNE 13 15 7 8 1011.9 1010.5 0.0
13/05:00am 21.6 19.8 11.0 51 5.9 N 11 15 6 8 1011.9 1010.5 0.0
13/04:30am 20.7 19.3 9.6 49 6.0 N 7 9 4 5 1011.8 1010.4 0.0
13/04:00am 21.8 20.3 9.3 45 6.8 N 7 9 4 5 1012.0 1010.6 0.0
13/03:30am 22.9 20.7 9.3 42 7.4 N 11 13 6 7 1012.0 1010.6 0.0
13/03:00am 23.5 20.8 9.1 40 7.9 N 13 17 7 9 1012.1 1010.7 0.0
13/02:30am 21.7 19.8 8.9 44 6.9 NNE 9 13 5 7 1012.0 1010.6 0.0
13/02:00am 19.7 19.5 9.0 50 5.7 CALM 0 0 0 0 1012.0 1010.6 0.0
13/01:30am 20.2 19.9 8.8 48 6.1 CALM 0 0 0 0 1012.0 1010.6 0.0
13/01:00am 20.9 20.7 8.9 46 6.4 CALM 0 0 0 0 1011.9 1010.5 0.0
13/12:30am 21.1 20.4 8.4 44 6.7 SSE 2 7 1 4 1011.8 1010.4 0.0
13/12:00am 22.1 21.3 8.2 41 7.4 SE 2 6 1 3 1011.9 1010.5 0.0
 
Date/Time
EDT
Temp
°C
App
Temp
°C
Dew
Point
Rel
Hum
%
Delta-T
°C
Wind Press
QNH
hPa
Press
MSL
hPa
Rain
since 9 am
mm
Dir
 
Spd
km/h
Gust
km/h
Spd
kts
Gust
kts
12/11:30pm 22.5 20.6 9.0 42 7.3 SE 9 17 5 9 1012.0 1010.6 0.0
12/11:00pm 22.7 22.2 8.0 39 7.8 CALM 0 0 0 0 1012.0 1010.6 0.0
12/10:30pm 23.6 23.2 8.1 37 8.3 CALM 0 0 0 0 1012.2 1010.8 0.0
12/10:00pm 24.7 24.4 8.6 36 8.8 CALM 0 0 0 0 1012.2 1010.8 0.0
12/09:30pm 25.8 24.4 8.8 34 9.3 N 6 11 3 6 1012.2 1010.8 0.0
12/09:00pm 27.3 25.9 8.7 31 10.3 NNE 6 7 3 4 1011.9 1010.5 0.0
12/08:30pm 29.2 27.3 7.7 26 11.8 NNE 7 7 4 4 1011.7 1010.3 0.0
12/08:00pm 31.1 29.4 7.5 23 13.0 NE 6 7 3 4 1011.6 1010.2 0.0
12/07:30pm 32.7 31.0 6.1 19 14.5 NE 4 7 2 4 1011.4 1010.0 0.0
12/07:00pm 33.9 31.7 6.3 18 15.2 NE 7 11 4 6 1011.1 1009.7 0.0
12/06:30pm 33.8 31.2 6.2 18 15.1 NNE 9 11 5 6 1011.2 1009.8 0.0
12/06:00pm 34.7 32.7 6.9 18 15.5 NNW 7 13 4 7 1011.3 1009.9 0.0
12/05:30pm 34.8 31.8 6.2 17 15.7 NNW 11 19 6 10 1011.3 1009.9 0.0
12/05:00pm 34.5 32.0 6.7 18 15.4 NNE 9 20 5 11 1011.3 1009.9 0.0
12/04:30pm 33.5 31.6 6.7 19 14.8 SSW 6 15 3 8 1011.6 1010.2 0.0
12/04:00pm 33.9 32.1 7.0 19 14.9 WNW 6 9 3 5 1011.9 1010.5 0.0
12/03:30pm 33.2 31.4 7.9 21 14.2 N 7 20 4 11 1012.3 1010.9 0.0
12/03:00pm 32.9 31.0 7.7 21 14.1 WSW 7 15 4 8 1012.6 1011.2 0.0
12/02:30pm 34.2 32.0 8.0 20 14.8 E 9 19 5 10 1013.1 1011.6 0.0
12/02:00pm 34.0 32.2 9.3 22 14.2 NE 9 19 5 10 1013.5 1012.1 0.0
12/01:30pm 32.8 31.2 10.2 25 13.1 N 9 17 5 9 1013.8 1012.4 0.0
12/01:00pm 32.0 30.5 10.7 27 12.4 ENE 9 15 5 8 1014.1 1012.7 0.0
12/12:30pm 32.1 30.6 11.8 29 12.0 ENE 11 19 6 10 1014.5 1013.1 0.0
12/12:00pm 31.5 29.6 11.8 30 11.7 N 13 19 7 10 1014.9 1013.5 0.0
12/11:30am 30.1 28.5 11.6 32 10.9 N 11 19 6 10 1015.3 1013.9 0.0
12/11:00am 29.5 27.8 12.4 35 10.1 NNE 13 20 7 11 1015.5 1014.1 0.0
12/10:30am 28.6 26.0 12.1 36 9.7 NE 17 22 9 12 1015.7 1014.3 0.0
12/10:00am 27.4 25.1 13.0 41 8.5 NE 17 22 9 12 1015.7 1014.3 0.0
12/09:30am 26.2 24.3 13.0 44 7.8 NE 15 20 8 11 1015.8 1014.4 0.0
12/09:00am 24.9 23.5 13.5 49 6.7 ENE 13 17 7 9 1015.8 1014.4 0.0
12/08:30am 23.0 21.5 13.2 54 5.7 ENE 13 19 7 10 1015.5 1014.1 0.0
12/08:00am 21.4 20.3 13.1 59 4.8 E 11 17 6 9 1015.1 1013.7 0.0
12/07:30am 19.9 18.4 13.1 65 3.9 E 13 19 7 10 1014.7 1013.3 0.0
12/07:00am 17.9 17.1 12.8 72 2.9 E 9 11 5 6 1014.6 1013.2 0.0
12/06:30am 17.5 16.9 12.2 71 3.0 ESE 7 9 4 5 1014.3 1012.9 0.0
12/06:00am 17.9 16.7 11.7 67 3.4 SE 9 11 5 6 1014.0 1012.6 0.0
12/05:30am 17.9 18.1 10.5 62 4.0 CALM 0 0 0 0 1013.6 1012.2 0.0
12/05:00am 18.6 18.7 10.2 58 4.5 CALM 0 0 0 0 1013.2 1011.8 0.0
12/04:30am 19.6 18.4 10.3 55 5.1 ENE 7 9 4 5 1013.1 1011.6 0.0
12/04:00am 21.3 19.8 10.5 50 6.0 N 9 13 5 7 1013.2 1011.8 0.0
12/03:30am 21.4 19.7 9.9 48 6.3 NNE 9 13 5 7 1013.2 1011.8 0.0
12/03:00am 22.8 20.4 9.9 44 7.1 NNE 13 15 7 8 1013.2 1011.8 0.0
12/02:30am 23.7 20.1 10.0 42 7.6 NNE 19 26 10 14 1013.1 1011.6 0.0
12/02:00am 24.2 20.3 9.4 39 8.1 NNE 20 30 11 16 1013.4 1012.0 0.0
12/01:30am 23.9 20.6 10.9 44 7.3 NNE 19 26 10 14 1013.3 1011.9 0.0
12/01:00am 22.3 21.3 12.3 53 5.7 SE 9 9 5 5 1013.5 1012.1 0.0
12/12:30am 24.5 23.5 13.4 50 6.5 ENE 11 15 6 8 1013.7 1012.3 0.0
12/12:00am 25.6 22.4 13.1 46 7.4 ENE 22 32 12 17 1013.8 1012.4 0.0
 
Date/Time
EDT
Temp
°C
App
Temp
°C
Dew
Point
Rel
Hum
%
Delta-T
°C
Wind Press
QNH
hPa
Press
MSL
hPa
Rain
since 9 am
mm
Dir
 
Spd
km/h
Gust
km/h
Spd
kts
Gust
kts
11/11:30pm 25.6 23.0 13.8 48 7.0 E 20 28 11 15 1013.8 1012.4 0.0
11/11:00pm 25.3 22.8 14.1 50 6.7 ESE 20 28 11 15 1013.7 1012.3 0.0
11/10:30pm 26.5 22.1 7.5 30 10.2 SE 20 33 11 18 1013.3 1011.9 0.0
11/10:00pm 25.6 22.6 4.1 25 10.9 SW 9 11 5 6 1012.5 1011.1 0.0
11/09:30pm 26.7 23.3 1.9 20 12.1 SSW 9 11 5 6 1012.4 1011.0 0.0
11/09:00pm 27.3 23.9 1.7 19 12.5 SSW 9 11 5 6 1012.0 1010.6 0.0
11/08:30pm 29.5 25.8 0.2 15 14.2 S 9 11 5 6 1011.6 1010.2 0.0
11/08:00pm 32.0 26.7 -0.9 12 15.9 S 17 20 9 11 1011.1 1009.7 0.0
11/07:30pm 33.3 27.7 0.1 12 16.4 S 19 26 10 14 1010.7 1009.3 0.0
11/07:00pm 34.7 29.5 -0.1 11 17.3 SSW 17 22 9 12 1010.3 1008.9 0.0
11/06:30pm 35.0 29.1 -2.6 9 18.0 S 19 28 10 15 1010.0 1008.6 0.0
11/06:00pm 35.3 29.8 -2.3 9 18.2 SSW 17 24 9 13 1009.8 1008.4 0.0
11/05:30pm 34.9 29.7 -2.6 9 17.9 SSW 15 24 8 13 1009.8 1008.4 0.0
11/05:00pm 35.9 30.0 -0.5 10 18.2 SW 20 26 11 14 1009.8 1008.4 0.0
11/04:30pm 35.7 30.0 -0.6 10 18.0 SW 19 30 10 16 1010.1 1008.7 0.0
11/04:00pm 35.6 29.1 0.6 11 17.7 WSW 24 32 13 17 1010.6 1009.2 0.0
11/03:30pm 35.6 29.1 0.6 11 17.7 SW 24 39 13 21 1011.0 1009.6 0.0
11/03:00pm 34.9 28.4 0.1 11 17.4 SW 24 33 13 18 1011.4 1010.0 0.0
11/02:30pm 34.7 28.5 2.3 13 16.8 SW 24 39 13 21 1011.9 1010.5 0.0
11/02:00pm 36.0 29.4 2.1 12 17.6 SW 26 35 14 19 1011.9 1010.5 0.0
11/01:30pm 35.4 29.9 1.7 12 17.3 SW 20 35 11 19 1012.1 1010.7 0.0
11/01:00pm 35.1 29.7 2.6 13 16.9 SW 20 33 11 18 1012.3 1010.9 0.0
11/12:30pm 34.3 32.2 6.6 18 15.3 WSW 7 15 4 8 1012.6 1011.2 0.0
11/12:00pm 33.0 30.6 7.1 20 14.3 SSW 9 17 5 9 1013.0 1011.5 0.0
11/11:30am 32.3 30.5 7.9 22 13.6 SSE 7 13 4 7 1013.3 1011.9 0.0
11/11:00am 30.9 28.5 8.6 25 12.5 SE 11 15 6 8 1013.4 1012.0 0.0
11/10:30am 29.5 28.2 10.1 30 11.1 SSE 7 11 4 6 1013.5 1012.1 0.0
11/10:00am 28.1 27.2 10.8 34 9.9 E 6 9 3 5 1013.4 1012.0 0.0
11/09:30am 26.0 24.9 10.6 38 8.7 E 7 11 4 6 1013.5 1012.1 0.0
11/09:00am 24.5 23.1 10.8 42 7.7 ESE 9 15 5 8 1013.5 1012.1 0.0
11/08:30am 22.5 21.7 8.2 40 7.6 ESE 2 7 1 4 1013.4 1012.0 0.0
11/08:00am 20.7 20.2 8.0 44 6.7 CALM 0 0 0 0 1013.3 1011.9 0.0
11/07:30am 19.3 18.0 7.7 47 6.0 SW 4 7 2 4 1012.8 1011.4 0.0
11/07:00am 18.1 16.8 7.8 51 5.3 S 4 7 2 4 1012.4 1011.0 0.0
11/06:30am 17.9 16.9 7.3 50 5.4 S 2 7 1 4 1012.1 1010.7 0.0
11/06:00am 18.5 16.9 7.9 50 5.5 SW 6 7 3 4 1011.8 1010.4 0.0
11/05:30am 19.1 16.9 6.2 43 6.5 WSW 7 7 4 4 1011.4 1010.0 0.0
11/05:00am 18.1 16.1 7.2 49 5.6 WSW 7 9 4 5 1011.3 1009.9 0.0
11/04:30am 17.9 15.9 7.0 49 5.5 SW 7 9 4 5 1011.1 1009.7 0.0
11/04:00am 18.3 15.8 6.5 46 5.9 WSW 9 9 5 5 1011.3 1009.9 0.0
11/03:30am 18.6 16.4 5.5 42 6.5 WSW 6 9 3 5 1011.4 1010.0 0.0
11/03:00am 18.7 17.7 5.5 42 6.5 CALM 0 0 0 0 1011.5 1010.1 0.0
11/02:30am 19.6 18.5 4.9 38 7.2 CALM 0 0 0 0 1011.7 1010.3 0.0
11/02:00am 21.0 19.9 5.0 35 8.0 CALM 0 0 0 0 1011.9 1010.5 0.0
11/01:30am 22.7 21.5 4.7 31 9.0 CALM 0 0 0 0 1011.9 1010.5 0.0
11/01:00am 23.5 21.0 4.9 30 9.4 SSW 7 9 4 5 1012.0 1010.6 0.0
11/12:30am 24.2 21.3 4.6 28 9.9 SW 9 11 5 6 1012.1 1010.7 0.0
11/12:00am 22.7 19.9 5.2 32 8.8 SW 9 9 5 5 1012.1 1010.7 0.0
 
Date/Time
EDT
Temp
°C
App
Temp
°C
Dew
Point
Rel
Hum
%
Delta-T
°C
Wind Press
QNH
hPa
Press
MSL
hPa
Rain
since 9 am
mm
Dir
 
Spd
km/h
Gust
km/h
Spd
kts
Gust
kts
10/11:30pm 24.2 21.8 5.1 29 9.7 SW 7 9 4 5 1012.1 1010.7 0.0
10/11:00pm 24.2 21.7 4.6 28 9.9 SW 7 7 4 4 1012.2 1010.8 0.0
10/10:30pm 24.2 21.7 4.6 28 9.9 SW 7 7 4 4 1012.3 1010.9 0.0
10/10:00pm 25.9 24.7 4.4 25 10.9 CALM 0 0 0 0 1012.1 1010.7 0.0
10/09:30pm 28.1 24.8 2.3 19 12.8 SSE 9 15 5 8 1011.7 1010.3 0.0
10/09:00pm 30.0 25.5 2.3 17 13.9 SSW 15 19 8 10 1011.6 1010.2 0.0
10/08:30pm 30.4 26.2 1.8 16 14.3 SSW 13 15 7 8 1011.3 1009.9 0.0
10/08:00pm 32.2 28.7 1.3 14 15.5 SSW 9 13 5 7 1011.0 1009.6 0.0
10/07:30pm 34.6 29.7 2.2 13 16.7 SW 17 20 9 11 1010.7 1009.3 0.0
10/07:00pm 35.3 31.1 3.8 14 16.8 SW 15 24 8 13 1010.5 1009.1 0.0
10/06:30pm 35.5 30.6 3.9 14 16.8 SW 19 28 10 15 1010.4 1009.0 0.0
10/06:00pm 36.0 30.9 4.3 14 17.1 SW 20 32 11 17 1010.4 1009.0 0.0
10/05:30pm 36.0 30.6 4.3 14 17.0 SW 22 35 12 19 1010.5 1009.1 0.0
10/05:00pm 36.5 32.5 4.7 14 17.3 WSW 15 32 8 17 1010.5 1009.1 0.0
10/04:30pm 35.4 31.4 6.6 17 16.0 SW 17 28 9 15 1010.7 1009.3 0.0
10/04:00pm 35.3 30.9 7.4 18 15.7 SW 20 35 11 19 1011.1 1009.7 0.0
10/03:30pm 36.1 33.8 10.3 21 15.2 W 13 20 7 11 1011.4 1010.0 0.0
10/03:00pm 33.7 30.3 9.0 22 14.1 SW 17 28 9 15 1011.9 1010.5 0.0
10/02:30pm 34.9 31.3 10.0 22 14.5 SW 19 28 10 15 1012.4 1011.0 0.0
10/02:00pm 34.5 32.5 11.6 25 13.7 W 13 26 7 14 1012.8 1011.4 0.0
10/01:30pm 33.4 30.4 11.9 27 12.8 WNW 19 32 10 17 1013.5 1012.1 0.0
10/01:00pm 32.9 30.3 12.0 28 12.5 NW 17 28 9 15 1013.9 1012.5 0.0
10/12:30pm 32.2 29.9 12.9 31 11.6 NNW 17 28 9 15 1014.4 1013.0 0.0
10/12:00pm 31.2 28.7 13.5 34 10.7 NNW 19 26 10 14 1014.7 1013.3 0.0
10/11:30am 29.7 26.2 12.2 34 10.3 NNW 22 32 12 17 1015.2 1013.8 0.0
10/11:00am 28.6 25.2 12.5 37 9.5 N 22 30 12 16 1015.5 1014.1 0.0
10/10:30am 27.7 24.7 12.5 39 9.0 N 20 30 11 16 1015.8 1014.4 0.0
10/10:00am 26.8 23.2 13.2 43 8.1 N 24 33 13 18 1015.9 1014.5 0.0
10/09:30am 25.6 22.7 14.1 49 6.9 N 22 32 12 17 1016.0 1014.6 0.0
10/09:00am 24.2 21.4 14.3 54 5.9 N 22 28 12 15 1016.0 1014.6 0.0
10/08:30am 23.5 21.3 14.8 58 5.2 N 20 28 11 15 1016.1 1014.7 0.0
10/08:00am 22.7 21.0 14.8 61 4.7 N 17 24 9 13 1016.1 1014.7 0.0
10/07:30am 21.9 21.7 14.8 64 4.2 NNE 9 13 5 7 1015.7 1014.3 0.0

Other Formats:

Comma delimited format used in spreadsheet applications
http://www.bom.gov.au/fwo/IDN60801/IDN60801.95709.axf

JavaScript Object Notation format (JSON) in row-major order
http://www.bom.gov.au/fwo/IDN60801/IDN60801.95709.json